Time;durP1;ratioP1;P1;durP2;ratioP2;P2;SDS_P1;SDS_P2;PMS_P1;PMS_P2;Temp;Humidity;BMP_temperature;BMP_pressure;BME280_temperature;BME280_humidity;BME280_pressure;Samples;Min_cycle;Max_cycle;Signal;HPM_P1;HPM_P2
2023/06/10 00:02:25;;;;;;;6.20;5.70;;;22.80;26.70;;;;;;10420675;28;20704;-76
2023/06/10 00:07:28;;;;;;;6.10;5.60;;;22.70;27.10;;;;;;10423613;28;20240;-75
2023/06/10 00:12:34;;;;;;;5.67;5.27;;;22.60;26.90;;;;;;10423065;28;20217;-75
2023/06/10 00:17:40;;;;;;;5.57;5.03;;;22.60;27.10;;;;;;10416308;28;20229;-76
2023/06/10 00:22:46;;;;;;;5.70;5.27;;;22.40;26.90;;;;;;10420516;28;20286;-75
2023/06/10 00:27:50;;;;;;;5.63;5.13;;;22.30;26.90;;;;;;10423743;28;20304;-76
2023/06/10 00:32:54;;;;;;;4.70;4.40;;;22.30;26.90;;;;;;10414193;28;20225;-75
2023/06/10 00:37:57;;;;;;;5.47;5.07;;;22.20;27.20;;;;;;10420718;28;20225;-75
2023/06/10 00:43:01;;;;;;;5.10;4.80;;;22.20;26.80;;;;;;10419403;28;20228;-75
2023/06/10 00:48:06;;;;;;;5.07;4.67;;;22.20;27.10;;;;;;10428673;28;20227;-75
2023/06/10 00:53:10;;;;;;;5.17;4.77;;;22.10;27.50;;;;;;10422737;28;20225;-75
2023/06/10 00:58:13;;;;;;;5.30;4.90;;;22.10;27.20;;;;;;10423442;28;20240;-75
2023/06/10 01:03:18;;;;;;;5.33;4.93;;;22.00;27.20;;;;;;10412193;28;20253;-75
2023/06/10 01:08:33;;;;;;;5.77;5.37;;;22.00;27.70;;;;;;10422699;28;20241;-75
2023/06/10 01:13:40;;;;;;;4.83;4.53;;;21.90;28.20;;;;;;10413264;28;20756;-75
2023/06/10 01:18:45;;;;;;;5.17;4.87;;;21.90;27.80;;;;;;10415910;28;20244;-75
2023/06/10 01:23:49;;;;;;;5.50;5.10;;;21.80;28.50;;;;;;10423422;28;20233;-74
2023/06/10 01:28:56;;;;;;;4.97;4.57;;;21.80;27.90;;;;;;10415973;28;20245;-75
2023/06/10 01:33:59;;;;;;;5.13;4.73;;;21.70;28.10;;;;;;10420443;28;20229;-75
2023/06/10 01:39:05;;;;;;;4.37;4.07;;;21.60;27.80;;;;;;10419974;28;20224;-74
2023/06/10 01:44:09;;;;;;;5.20;4.80;;;21.60;28.20;;;;;;10419496;28;20694;-74
2023/06/10 01:49:12;;;;;;;5.30;4.93;;;21.50;27.90;;;;;;10417438;28;20865;-75
2023/06/10 01:54:17;;;;;;;5.50;5.10;;;21.40;28.10;;;;;;10416001;28;20229;-75
2023/06/10 01:59:20;;;;;;;5.50;5.10;;;21.40;28.40;;;;;;10420311;28;20325;-75
2023/06/10 02:04:23;;;;;;;5.23;4.93;;;21.30;28.20;;;;;;10416850;28;20275;-75
2023/06/10 02:09:28;;;;;;;6.17;5.67;;;21.20;28.20;;;;;;10415712;28;20985;-75
2023/06/10 02:14:33;;;;;;;5.73;5.33;;;21.10;28.70;;;;;;10422110;28;20569;-75
2023/06/10 02:19:36;;;;;;;6.50;5.90;;;21.00;28.40;;;;;;10421448;28;20656;-75
2023/06/10 02:24:42;;;;;;;5.83;5.43;;;20.90;28.60;;;;;;10416177;28;20641;-75
2023/06/10 02:29:45;;;;;;;5.30;4.90;;;20.90;28.90;;;;;;10415494;28;20312;-74
2023/06/10 02:34:49;;;;;;;5.50;5.10;;;20.80;28.50;;;;;;10418959;28;20319;-75
2023/06/10 02:39:53;;;;;;;5.13;4.73;;;20.80;28.80;;;;;;10414773;28;20241;-75
2023/06/10 02:44:56;;;;;;;5.07;4.73;;;20.70;29.10;;;;;;10409846;28;20833;-75
2023/06/10 02:50:00;;;;;;;4.83;4.53;;;20.60;28.70;;;;;;10416738;28;20587;-75
2023/06/10 02:55:05;;;;;;;5.13;4.73;;;20.50;28.70;;;;;;10417562;28;20227;-74
2023/06/10 03:00:10;;;;;;;5.47;5.07;;;20.50;29.20;;;;;;10422034;28;20632;-75
2023/06/10 03:05:14;;;;;;;5.80;5.40;;;20.40;29.30;;;;;;10424051;28;20308;-74
2023/06/10 03:10:19;;;;;;;6.77;6.17;;;20.30;29.20;;;;;;10419094;28;20232;-75
2023/06/10 03:15:22;;;;;;;5.83;5.43;;;20.20;29.60;;;;;;10421194;28;20237;-74
2023/06/10 03:20:25;;;;;;;6.10;5.70;;;20.20;29.30;;;;;;10421380;28;20240;-74
2023/06/10 03:25:30;;;;;;;6.87;6.37;;;20.10;29.30;;;;;;10423636;28;20336;-74
2023/06/10 03:30:33;;;;;;;5.93;5.53;;;20.10;29.80;;;;;;10417976;28;20767;-74
2023/06/10 03:35:37;;;;;;;6.13;5.70;;;20.00;29.30;;;;;;10420119;28;20264;-74
2023/06/10 03:40:41;;;;;;;6.20;5.73;;;19.90;30.30;;;;;;10425748;28;20320;-74
2023/06/10 03:45:45;;;;;;;5.47;5.07;;;19.80;30.00;;;;;;10421613;28;20227;-74
2023/06/10 03:50:50;;;;;;;5.67;5.17;;;19.80;29.80;;;;;;10422478;28;20225;-74
2023/06/10 03:55:57;;;;;;;5.93;5.50;;;19.80;29.80;;;;;;10417623;28;20255;-74
2023/06/10 04:01:00;;;;;;;5.70;5.30;;;19.70;30.30;;;;;;10422991;28;20225;-74
2023/06/10 04:06:04;;;;;;;5.47;5.07;;;19.60;30.00;;;;;;10426013;28;20233;-74
2023/06/10 04:11:09;;;;;;;6.00;5.40;;;19.60;30.10;;;;;;10430933;28;20284;-74
2023/06/10 04:16:12;;;;;;;6.10;5.60;;;19.60;30.70;;;;;;10425488;28;20263;-74
2023/06/10 04:21:15;;;;;;;6.60;6.10;;;19.60;30.60;;;;;;10423939;28;20226;-74
2023/06/10 04:26:20;;;;;;;6.10;5.60;;;19.60;30.80;;;;;;10423903;28;20340;-74
2023/06/10 04:31:23;;;;;;;6.70;6.20;;;19.70;31.30;;;;;;10423903;28;20240;-74
2023/06/10 04:36:26;;;;;;;6.77;6.27;;;19.70;31.10;;;;;;10427415;28;20228;-74
2023/06/10 04:41:31;;;;;;;6.67;6.00;;;19.70;31.50;;;;;;10424677;28;20416;-74
2023/06/10 04:46:34;;;;;;;6.27;5.67;;;19.80;32.70;;;;;;10427760;28;20808;-74
2023/06/10 04:51:38;;;;;;;6.37;5.87;;;19.80;32.40;;;;;;10420171;28;20261;-74
2023/06/10 04:56:42;;;;;;;6.23;5.83;;;19.90;32.40;;;;;;10428513;28;20225;-74
2023/06/10 05:01:45;;;;;;;6.63;6.13;;;19.90;33.30;;;;;;10422504;28;20252;-75
2023/06/10 05:06:49;;;;;;;6.80;6.30;;;20.00;32.90;;;;;;10417306;28;20224;-74
2023/06/10 05:11:55;;;;;;;6.50;6.00;;;20.00;33.10;;;;;;10418627;28;20271;-74
2023/06/10 05:16:58;;;;;;;6.10;5.70;;;20.10;33.80;;;;;;10421589;28;20224;-74
2023/06/10 05:22:02;;;;;;;6.60;6.10;;;20.20;33.40;;;;;;10421679;28;20249;-74
2023/06/10 05:27:07;;;;;;;6.37;5.87;;;20.30;33.50;;;;;;10420303;28;20244;-75
2023/06/10 05:32:11;;;;;;;6.13;5.70;;;20.40;34.50;;;;;;10424160;28;20232;-74
2023/06/10 05:37:15;;;;;;;6.40;5.90;;;20.60;34.00;;;;;;10415401;28;20229;-74
2023/06/10 05:42:19;;;;;;;6.57;6.07;;;20.70;34.00;;;;;;10424036;28;20320;-74
2023/06/10 05:47:23;;;;;;;6.70;6.17;;;20.80;34.80;;;;;;10424290;28;20236;-74
2023/06/10 05:52:26;;;;;;;7.00;6.30;;;20.90;34.10;;;;;;10420401;28;20223;-75
2023/06/10 05:57:30;;;;;;;6.87;6.27;;;21.00;34.30;;;;;;10424097;28;20217;-75
2023/06/10 06:02:33;;;;;;;6.53;5.97;;;21.10;34.90;;;;;;10421935;28;20222;-74
2023/06/10 06:07:37;;;;;;;7.00;6.50;;;21.30;34.50;;;;;;10427318;28;20229;-78
2023/06/10 06:12:41;;;;;;;6.87;6.27;;;21.40;34.60;;;;;;10411525;28;20236;-75
2023/06/10 06:17:45;;;;;;;6.83;6.33;;;21.50;35.10;;;;;;10413794;28;20235;-74
2023/06/10 06:22:48;;;;;;;6.47;5.97;;;21.70;34.70;;;;;;10413119;28;20689;-75
2023/06/10 06:27:53;;;;;;;6.33;5.83;;;21.80;34.60;;;;;;10422932;28;20300;-75
2023/06/10 06:32:56;;;;;;;6.13;5.73;;;22.00;35.10;;;;;;10427545;28;20307;-75
2023/06/10 06:37:59;;;;;;;5.50;5.03;;;22.10;34.50;;;;;;10417562;28;20228;-76
2023/06/10 06:43:04;;;;;;;6.20;5.80;;;22.30;34.70;;;;;;10421234;28;20214;-75
2023/06/10 06:48:07;;;;;;;13.83;12.63;;;22.40;35.00;;;;;;10416767;28;20594;-75
2023/06/10 06:53:11;;;;;;;6.77;5.77;;;22.60;34.60;;;;;;10420058;28;20226;-74
2023/06/10 06:58:15;;;;;;;6.70;6.20;;;22.80;34.60;;;;;;10419739;28;20358;-74
2023/06/10 07:03:19;;;;;;;6.07;5.60;;;22.90;34.90;;;;;;10423420;28;20772;-74
2023/06/10 07:08:22;;;;;;;5.97;5.57;;;23.00;34.30;;;;;;10412353;28;20240;-75
2023/06/10 07:13:26;;;;;;;5.87;5.47;;;23.20;34.30;;;;;;10417233;28;20313;-75
2023/06/10 07:18:29;;;;;;;5.63;5.23;;;23.30;34.70;;;;;;10420131;28;20225;-74
2023/06/10 07:23:33;;;;;;;6.20;5.80;;;23.40;34.20;;;;;;10421431;28;20233;-74
2023/06/10 07:28:37;;;;;;;5.67;5.27;;;23.60;34.00;;;;;;10419111;28;20222;-74
2023/06/10 07:33:41;;;;;;;5.43;5.03;;;23.80;34.10;;;;;;10416849;28;20235;-74
2023/06/10 07:38:44;;;;;;;5.90;5.50;;;24.00;33.70;;;;;;10414789;28;20309;-74
2023/06/10 07:43:54;;;;;;;5.87;5.37;;;24.20;33.50;;;;;;10415306;28;20226;-74
2023/06/10 07:48:57;;;;;;;6.00;5.60;;;24.40;33.10;;;;;;10414659;28;20225;-76
2023/06/10 07:54:00;;;;;;;6.17;5.67;;;24.50;33.00;;;;;;10421173;28;20838;-76
2023/06/10 07:59:05;;;;;;;5.80;5.40;;;24.70;33.00;;;;;;10428838;28;20784;-75
2023/06/10 08:04:08;;;;;;;6.00;5.50;;;24.90;32.60;;;;;;10440438;28;20231;-76
2023/06/10 08:09:12;;;;;;;5.93;5.53;;;25.20;32.30;;;;;;10416083;28;20727;-75
2023/06/10 08:14:17;;;;;;;6.10;5.70;;;25.30;31.90;;;;;;10413089;28;20729;-76
2023/06/10 08:19:20;;;;;;;6.57;5.73;;;25.40;31.70;;;;;;10412162;28;20316;-75
2023/06/10 08:24:24;;;;;;;7.27;6.40;;;25.40;31.50;;;;;;10414301;28;20235;-75
2023/06/10 08:29:29;;;;;;;6.60;6.10;;;25.40;31.30;;;;;;10413309;28;20249;-75
2023/06/10 08:34:35;;;;;;;6.10;5.60;;;25.40;31.00;;;;;;10413675;28;20231;-73
2023/06/10 08:39:38;;;;;;;5.93;5.53;;;25.40;31.00;;;;;;10415218;28;20225;-73
2023/06/10 08:44:44;;;;;;;5.77;5.37;;;25.40;31.10;;;;;;10409309;28;20227;-74
2023/06/10 08:49:48;;;;;;;4.70;4.40;;;25.50;31.20;;;;;;10409753;28;20236;-74
2023/06/10 08:54:58;;;;;;;4.60;4.20;;;25.70;30.40;;;;;;10412656;28;20225;-74
2023/06/10 09:00:04;;;;;;;4.63;4.33;;;25.90;29.70;;;;;;10412700;28;20228;-74
2023/06/10 09:05:08;;;;;;;4.10;3.90;;;26.00;29.60;;;;;;10418319;28;20759;-74
2023/06/10 09:10:13;;;;;;;4.33;4.03;;;26.10;29.60;;;;;;10416826;28;20243;-74
2023/06/10 09:15:18;;;;;;;4.27;3.97;;;26.30;29.40;;;;;;10414015;28;20243;-74
2023/06/10 09:20:21;;;;;;;4.10;3.80;;;26.60;29.50;;;;;;10416464;28;20253;-74
2023/06/10 09:25:36;;;;;;;4.20;3.90;;;26.90;29.70;;;;;;10410762;28;20858;-74
2023/06/10 09:30:41;;;;;;;4.87;4.50;;;27.10;28.70;;;;;;10421601;28;20316;-74
2023/06/10 09:35:48;;;;;;;4.53;4.23;;;27.30;28.30;;;;;;10431582;28;20319;-76
2023/06/10 09:40:52;;;;;;;4.60;4.13;;;27.40;28.20;;;;;;10412467;28;20226;-80
2023/06/10 09:45:58;;;;;;;4.20;4.00;;;27.40;28.40;;;;;;10416264;28;20643;-76
2023/06/10 09:51:01;;;;;;;4.80;4.50;;;27.40;27.70;;;;;;10419491;28;20626;-79
2023/06/10 09:56:06;;;;;;;4.93;4.43;;;27.30;28.10;;;;;;10424703;28;20324;-79
2023/06/10 10:01:15;;;;;;;4.47;4.17;;;27.30;28.70;;;;;;10415985;28;20229;-76
2023/06/10 10:06:19;;;;;;;7.53;4.63;;;27.30;27.90;;;;;;10413129;28;20759;-74
2023/06/10 10:11:25;;;;;;;5.37;4.97;;;27.30;28.00;;;;;;10419441;28;20228;-76
2023/06/10 10:16:38;;;;;;;4.33;4.03;;;27.20;27.90;;;;;;10416195;28;20239;-76
2023/06/10 10:21:49;;;;;;;4.80;4.40;;;27.10;27.70;;;;;;10416896;28;20807;-77
2023/06/10 10:26:58;;;;;;;4.10;3.90;;;27.10;27.90;;;;;;10417587;28;20239;-77
2023/06/10 10:32:05;;;;;;;4.10;3.80;;;27.00;27.70;;;;;;10473880;28;20229;-76
2023/06/10 10:37:09;;;;;;;4.50;4.20;;;26.90;27.70;;;;;;10464082;28;20231;-77
2023/06/10 10:42:14;;;;;;;5.63;4.67;;;26.90;28.10;;;;;;10471388;28;20290;-78
2023/06/10 10:47:22;;;;;;;4.20;3.93;;;26.90;28.10;;;;;;10463354;28;20232;-77
2023/06/10 10:52:26;;;;;;;4.47;4.17;;;26.80;27.80;;;;;;10460479;28;20220;-77
2023/06/10 10:57:31;;;;;;;4.70;4.30;;;26.70;27.90;;;;;;10466849;28;20311;-78
2023/06/10 11:02:39;;;;;;;5.20;4.90;;;26.60;28.00;;;;;;10460161;28;20220;-76
2023/06/10 11:07:53;;;;;;;5.17;4.80;;;26.60;28.00;;;;;;10463686;28;20270;-76
2023/06/10 11:12:58;;;;;;;4.43;4.17;;;26.60;27.80;;;;;;10454269;28;20224;-79
2023/06/10 11:18:10;;;;;;;4.27;3.97;;;26.70;28.10;;;;;;10484150;28;20379;-76
2023/06/10 11:23:27;;;;;;;4.60;4.20;;;26.70;27.70;;;;;;10435105;28;20316;-75
2023/06/10 11:28:30;;;;;;;5.20;4.23;;;26.70;27.60;;;;;;10463274;28;20263;-76
2023/06/10 11:33:39;;;;;;;4.47;4.17;;;26.70;27.80;;;;;;10418926;28;20312;-76
2023/06/10 11:38:43;;;;;;;4.57;4.27;;;26.70;27.90;;;;;;10421918;28;20351;-75
2023/06/10 11:43:47;;;;;;;4.40;4.10;;;26.70;27.80;;;;;;10423053;28;20254;-76
2023/06/10 11:48:53;;;;;;;4.60;4.30;;;26.70;27.80;;;;;;10424245;28;20227;-78
2023/06/10 11:53:57;;;;;;;4.63;4.33;;;26.70;27.70;;;;;;10419611;28;20222;-75
2023/06/10 11:59:04;;;;;;;4.80;4.50;;;26.70;27.90;;;;;;10419892;28;20594;-76
2023/06/10 12:04:10;;;;;;;4.40;4.10;;;26.80;28.00;;;;;;10425769;28;20242;-75
2023/06/10 12:09:20;;;;;;;5.03;4.57;;;26.80;27.50;;;;;;10420869;28;20259;-75
2023/06/10 12:14:57;;;;;;;4.27;3.97;;;27.00;27.50;;;;;;10413815;28;20311;-76
2023/06/10 12:20:04;;;;;;;4.50;4.20;;;27.10;27.50;;;;;;10424100;28;20256;-75
2023/06/10 12:25:09;;;;;;;4.47;4.17;;;27.20;27.30;;;;;;10421834;28;20319;-75
2023/06/10 12:30:20;;;;;;;4.73;4.43;;;27.30;27.50;;;;;;10427824;28;20233;-75
2023/06/10 12:35:25;;;;;;;4.47;4.10;;;27.50;27.20;;;;;;10416187;28;20237;-76
2023/06/10 12:40:29;;;;;;;4.30;4.00;;;27.60;26.80;;;;;;10407982;28;20220;-76
2023/06/10 12:45:34;;;;;;;500.90;128.40;;;27.70;27.10;;;;;;10421419;22;20755;-78
2023/06/10 12:50:40;;;;;;;129.43;90.30;;;27.80;27.20;;;;;;10427733;28;20303;-78
2023/06/10 12:55:45;;;;;;;63.27;23.07;;;27.90;26.80;;;;;;10417953;28;20218;-74
2023/06/10 13:00:48;;;;;;;114.00;55.07;;;28.00;26.70;;;;;;10413926;28;20255;-78
2023/06/10 13:05:53;;;;;;;31.63;21.43;;;28.10;26.60;;;;;;10409679;28;20762;-74
2023/06/10 13:10:56;;;;;;;14.53;12.33;;;28.20;26.50;;;;;;10416977;28;20228;-74
2023/06/10 13:16:01;;;;;;;6.50;6.00;;;28.20;26.40;;;;;;10413045;28;20231;-79
2023/06/10 13:21:05;;;;;;;4.97;4.60;;;28.30;26.10;;;;;;10447915;28;20278;-79
2023/06/10 13:26:08;;;;;;;4.60;4.20;;;28.20;25.80;;;;;;10449782;28;20228;-78
2023/06/10 13:31:12;;;;;;;3.50;3.30;;;28.10;26.00;;;;;;10452125;28;20318;-74
2023/06/10 13:36:16;;;;;;;3.80;3.60;;;28.10;26.10;;;;;;10452408;28;20315;-75
2023/06/10 13:41:20;;;;;;;4.30;4.00;;;28.10;25.90;;;;;;10453792;28;20232;-75
2023/06/10 13:46:23;;;;;;;4.43;4.13;;;28.10;26.00;;;;;;10451314;28;20239;-75
2023/06/10 13:51:27;;;;;;;4.20;3.80;;;28.20;26.30;;;;;;10453230;28;20232;-75
2023/06/10 13:56:31;;;;;;;3.80;3.60;;;28.20;26.30;;;;;;10456318;28;20230;-77
2023/06/10 14:01:37;;;;;;;3.80;3.60;;;28.40;26.40;;;;;;10451090;28;20248;-78
2023/06/10 14:06:43;;;;;;;3.60;3.40;;;28.50;25.60;;;;;;10449970;28;20853;-78
2023/06/10 14:11:47;;;;;;;3.50;3.30;;;28.70;25.00;;;;;;10454590;28;20436;-74
2023/06/10 14:16:50;;;;;;;3.80;3.50;;;28.80;25.30;;;;;;10447928;28;21078;-74
2023/06/10 14:21:56;;;;;;;3.77;3.47;;;28.80;25.30;;;;;;10450751;28;20251;-74
2023/06/10 14:26:59;;;;;;;3.97;3.57;;;28.90;25.00;;;;;;10452813;28;20224;-75
2023/06/10 14:32:02;;;;;;;4.03;3.80;;;28.90;25.20;;;;;;10458281;28;20983;-78
2023/06/10 14:37:12;;;;;;;3.80;3.60;;;28.90;25.10;;;;;;10459818;28;20580;-78
2023/06/10 14:42:15;;;;;;;4.00;3.70;;;28.90;25.00;;;;;;10465589;28;20224;-78
2023/06/10 14:47:18;;;;;;;4.10;3.80;;;28.80;25.10;;;;;;10455827;28;20232;-78
2023/06/10 14:52:23;;;;;;;3.70;3.50;;;28.70;25.10;;;;;;10454167;28;20238;-78
2023/06/10 14:57:26;;;;;;;3.67;3.47;;;28.70;25.20;;;;;;10455168;28;20235;-78
2023/06/10 15:02:29;;;;;;;3.67;3.47;;;28.70;25.20;;;;;;10462191;28;20468;-78
2023/06/10 15:07:34;;;;;;;6.37;5.97;;;28.70;24.90;;;;;;10463725;28;20740;-75
2023/06/10 15:12:40;;;;;;;3.80;3.60;;;28.70;25.00;;;;;;10467827;28;20714;-75
2023/06/10 15:17:43;;;;;;;5.53;5.03;;;28.80;24.70;;;;;;10461521;28;20242;-77
2023/06/10 15:22:48;;;;;;;3.60;3.40;;;28.90;25.00;;;;;;10462168;28;20716;-79
2023/06/10 15:27:51;;;;;;;3.30;3.10;;;29.00;25.40;;;;;;10455533;28;20232;-78
2023/06/10 15:32:55;;;;;;;3.27;3.07;;;28.80;25.60;;;;;;10461939;28;20230;-80
2023/06/10 15:38:00;;;;;;;3.00;2.83;;;28.50;25.80;;;;;;10465648;28;20334;-78
2023/06/10 15:43:03;;;;;;;3.40;3.10;;;28.00;26.00;;;;;;10463486;28;20237;-78
2023/06/10 15:48:09;;;;;;;4.00;3.80;;;27.60;26.40;;;;;;10464356;28;20297;-75
2023/06/10 15:53:14;;;;;;;3.20;3.00;;;27.30;27.70;;;;;;10467043;28;20936;-75
2023/06/10 15:58:17;;;;;;;3.07;2.87;;;27.10;27.00;;;;;;10475818;28;20229;-75
2023/06/10 16:03:20;;;;;;;4.07;3.73;;;27.00;27.20;;;;;;10469672;28;20233;-75
2023/06/10 16:08:25;;;;;;;3.60;3.40;;;27.00;27.70;;;;;;10462057;28;20774;-77
2023/06/10 16:13:28;;;;;;;5.90;5.37;;;27.00;27.80;;;;;;10458450;28;20695;-73
2023/06/10 16:18:31;;;;;;;4.50;4.17;;;27.10;27.90;;;;;;10460125;28;20227;-74
2023/06/10 16:23:37;;;;;;;3.90;3.70;;;27.10;28.00;;;;;;10465172;28;20231;-75
2023/06/10 16:28:40;;;;;;;3.67;3.47;;;27.10;28.10;;;;;;10463093;28;20328;-77
2023/06/10 16:33:44;;;;;;;3.70;3.50;;;27.10;28.10;;;;;;10458137;28;20228;-73
2023/06/10 16:38:48;;;;;;;4.30;3.80;;;27.10;28.20;;;;;;10457620;28;20220;-75
2023/06/10 16:43:51;;;;;;;5.33;4.93;;;27.10;28.30;;;;;;10461294;28;20869;-74
2023/06/10 16:48:54;;;;;;;3.57;3.37;;;27.10;28.30;;;;;;10464624;28;20233;-73
2023/06/10 16:53:59;;;;;;;3.67;3.47;;;27.00;28.20;;;;;;10457625;28;20887;-71
2023/06/10 16:59:02;;;;;;;3.77;3.53;;;27.00;28.40;;;;;;10458562;28;20264;-74
2023/06/10 17:04:05;;;;;;;3.50;3.30;;;26.90;28.40;;;;;;10454345;28;20347;-73
2023/06/10 17:09:10;;;;;;;3.70;3.40;;;26.90;28.60;;;;;;10453301;28;20232;-74
2023/06/10 17:14:13;;;;;;;3.30;3.10;;;26.90;28.60;;;;;;10460540;28;20232;-74
2023/06/10 17:19:16;;;;;;;3.20;3.00;;;26.80;28.30;;;;;;10458362;28;20617;-74
2023/06/10 17:24:21;;;;;;;3.53;3.30;;;26.80;28.90;;;;;;10458802;28;20317;-74
2023/06/10 17:29:24;;;;;;;3.57;3.30;;;26.70;28.50;;;;;;10453208;28;20782;-74
2023/06/10 17:34:28;;;;;;;3.43;3.20;;;26.70;28.50;;;;;;10455150;28;20231;-74
2023/06/10 17:39:35;;;;;;;3.67;3.47;;;26.60;28.50;;;;;;10456065;28;20227;-74
2023/06/10 17:44:38;;;;;;;3.30;3.10;;;26.60;28.90;;;;;;10459704;28;20226;-78
2023/06/10 17:49:41;;;;;;;3.47;3.27;;;26.60;28.70;;;;;;10459153;28;20251;-75
2023/06/10 17:54:46;;;;;;;4.43;4.13;;;26.60;28.80;;;;;;10465334;28;20307;-75
2023/06/10 17:59:49;;;;;;;4.40;4.10;;;26.60;29.10;;;;;;10462530;28;20320;-76
2023/06/10 18:04:52;;;;;;;3.60;3.40;;;26.60;28.90;;;;;;10463309;28;20312;-76
2023/06/10 18:09:57;;;;;;;3.80;3.57;;;26.60;28.80;;;;;;10475255;28;20315;-76
2023/06/10 18:15:00;;;;;;;3.80;3.60;;;26.60;29.10;;;;;;10471430;28;20225;-76
2023/06/10 18:20:03;;;;;;;3.50;3.30;;;26.50;29.00;;;;;;10475467;28;20225;-77
2023/06/10 18:25:08;;;;;;;3.80;3.53;;;26.50;29.00;;;;;;10472385;28;20319;-76
2023/06/10 18:30:12;;;;;;;4.57;4.10;;;26.40;29.40;;;;;;10484896;28;20293;-77
2023/06/10 18:35:16;;;;;;;4.30;4.00;;;26.40;29.40;;;;;;10472188;28;20326;-77
2023/06/10 18:40:21;;;;;;;4.10;3.90;;;26.30;29.40;;;;;;10474986;28;20231;-80
2023/06/10 18:45:24;;;;;;;4.20;3.90;;;26.30;29.40;;;;;;10482169;28;20313;-80
2023/06/10 18:50:27;;;;;;;4.00;3.70;;;26.30;29.40;;;;;;10473214;28;20247;-80
2023/06/10 18:55:35;;;;;;;4.53;4.13;;;26.20;29.30;;;;;;10477141;28;20285;-80
2023/06/10 19:00:39;;;;;;;3.97;3.70;;;26.10;29.20;;;;;;10472403;28;20216;-80
2023/06/10 19:05:42;;;;;;;4.00;3.80;;;26.10;29.20;;;;;;10478313;28;20234;-80
2023/06/10 19:10:47;;;;;;;4.30;4.00;;;26.00;29.20;;;;;;10472503;28;20746;-80
2023/06/10 19:15:50;;;;;;;4.50;4.10;;;26.00;29.20;;;;;;10472841;28;20232;-76
2023/06/10 19:20:53;;;;;;;4.60;4.30;;;25.90;29.10;;;;;;10472865;28;20358;-75
2023/06/10 19:25:59;;;;;;;4.90;4.50;;;25.80;29.10;;;;;;10470999;28;20580;-81
2023/06/10 19:31:02;;;;;;;5.00;4.60;;;25.80;29.60;;;;;;10471178;28;20225;-80
2023/06/10 19:36:07;;;;;;;4.70;4.40;;;25.70;29.40;;;;;;10466138;28;20232;-80
2023/06/10 19:41:11;;;;;;;4.70;4.37;;;25.50;29.50;;;;;;10491741;28;20659;-81
2023/06/10 19:46:17;;;;;;;4.77;4.47;;;25.40;29.90;;;;;;10471121;28;20236;-80
2023/06/10 19:51:22;;;;;;;4.80;4.50;;;25.30;29.70;;;;;;10466543;28;20240;-80
2023/06/10 19:56:28;;;;;;;5.13;4.73;;;25.30;30.00;;;;;;10453773;28;20234;-80
2023/06/10 20:01:31;;;;;;;5.30;4.90;;;25.20;30.20;;;;;;10481199;28;20223;-81
2023/06/10 20:06:35;;;;;;;4.57;4.23;;;25.20;30.00;;;;;;10477446;28;20235;-79
2023/06/10 20:11:39;;;;;;;4.83;4.40;;;25.10;30.00;;;;;;10477784;28;20235;-80
2023/06/10 20:17:04;;;;;;;4.80;4.40;;;25.00;30.40;;;;;;10475670;28;20308;-76
2023/06/10 20:22:07;;;;;;;4.77;4.47;;;24.90;30.50;;;;;;10417499;28;20320;-76
2023/06/10 20:27:12;;;;;;;4.70;4.40;;;24.80;30.10;;;;;;10418992;28;20229;-76
2023/06/10 20:32:15;;;;;;;4.33;4.03;;;24.70;30.30;;;;;;10423887;28;20231;-76
2023/06/10 20:37:18;;;;;;;4.70;4.40;;;24.60;30.00;;;;;;10423585;28;20321;-76
2023/06/10 20:42:33;;;;;;;4.40;4.10;;;24.40;30.20;;;;;;10422361;28;21010;-75
2023/06/10 21:06:42;;;;;;;4.30;3.93;;;23.80;30.50;;;;;;10376537;22;20229;-76
2023/06/10 21:11:45;;;;;;;3.97;3.67;;;23.60;30.50;;;;;;10423574;28;20290;-76
2023/06/10 21:16:49;;;;;;;4.93;3.93;;;23.40;30.70;;;;;;10450830;28;20221;-76
2023/06/10 21:21:53;;;;;;;3.73;3.50;;;23.30;31.30;;;;;;10466124;28;20220;-76
2023/06/10 21:26:56;;;;;;;4.40;4.10;;;23.20;31.10;;;;;;10460537;28;20224;-76
2023/06/10 21:32:01;;;;;;;4.03;3.73;;;23.20;31.40;;;;;;10462961;28;20225;-76
2023/06/10 21:37:05;;;;;;;3.90;3.70;;;23.20;31.90;;;;;;10453472;28;20305;-76
2023/06/10 21:42:08;;;;;;;4.23;3.93;;;23.10;31.50;;;;;;10465223;28;20712;-76
2023/06/10 21:47:14;;;;;;;4.13;3.90;;;23.00;31.70;;;;;;10462105;28;20239;-76
2023/06/10 21:52:17;;;;;;;4.57;4.17;;;23.00;32.10;;;;;;10463286;28;20242;-76
2023/06/10 21:57:22;;;;;;;4.73;4.37;;;22.90;31.90;;;;;;10464482;28;20248;-77
2023/06/10 22:02:27;;;;;;;5.03;4.63;;;22.80;32.30;;;;;;10457399;28;20232;-76
2023/06/10 22:07:31;;;;;;;5.13;4.73;;;22.80;32.50;;;;;;10458090;28;20286;-76
2023/06/10 22:12:34;;;;;;;5.00;4.60;;;22.70;32.10;;;;;;10463751;28;20224;-77
2023/06/10 22:17:39;;;;;;;4.63;4.33;;;22.60;32.30;;;;;;10456726;28;20217;-77
2023/06/10 22:22:42;;;;;;;4.63;4.23;;;22.60;32.60;;;;;;10458986;28;20746;-77
2023/06/10 22:27:46;;;;;;;4.13;3.80;;;22.60;32.40;;;;;;10463377;28;20572;-77
2023/06/10 22:32:50;;;;;;;4.40;4.10;;;22.50;32.30;;;;;;10462171;28;20224;-77
2023/06/10 22:37:53;;;;;;;4.40;4.10;;;22.50;32.70;;;;;;10454162;28;20220;-77
2023/06/10 22:42:59;;;;;;;4.70;4.40;;;22.40;32.40;;;;;;10454273;28;20228;-77
2023/06/10 22:48:04;;;;;;;4.57;4.27;;;22.40;32.90;;;;;;10460215;28;20744;-76
2023/06/10 22:53:07;;;;;;;4.13;3.93;;;22.30;32.90;;;;;;10460643;28;20282;-76
2023/06/10 22:58:10;;;;;;;4.50;4.20;;;22.20;32.50;;;;;;10454600;28;20304;-77
2023/06/10 23:03:15;;;;;;;4.53;4.13;;;22.10;32.70;;;;;;10459768;28;20235;-77
2023/06/10 23:08:18;;;;;;;4.40;4.03;;;22.00;33.20;;;;;;10459528;28;20681;-76
2023/06/10 23:13:21;;;;;;;4.60;4.30;;;22.00;33.00;;;;;;10463635;28;20750;-77
2023/06/10 23:18:26;;;;;;;4.27;3.90;;;21.90;33.20;;;;;;10472001;28;22562;-77
2023/06/10 23:23:33;;;;;;;4.60;4.20;;;21.80;33.70;;;;;;10468032;28;20220;-77
2023/06/10 23:28:36;;;;;;;4.53;4.23;;;21.70;33.40;;;;;;10468454;28;20226;-77
2023/06/10 23:33:41;;;;;;;4.30;3.90;;;21.60;33.30;;;;;;10467273;28;20315;-77
2023/06/10 23:38:44;;;;;;;4.20;3.90;;;21.60;33.70;;;;;;10464380;28;20267;-77
2023/06/10 23:43:47;;;;;;;4.80;4.40;;;21.50;33.40;;;;;;10462028;28;20651;-77
2023/06/10 23:48:52;;;;;;;4.30;4.00;;;21.50;33.50;;;;;;10465487;28;20233;-77
2023/06/10 23:53:55;;;;;;;4.33;4.03;;;21.50;33.70;;;;;;10466929;28;20236;-77
2023/06/10 23:58:58;;;;;;;4.53;4.23;;;21.50;33.50;;;;;;10467963;28;20217;-77
